Wilmot, Arkansas
Current Conditions -  °F | °C
As of 1:35 PM on Sunday 23 Nov 2014 (Local Time) from KBQP Reporting Station
Overcast Overcast  
Wind Chill: 64°   Ceiling: 2300
Heat Index: 64°   Visibility: 10mi
Dew Point: 61°   Wind: 12mph
Humidity: 92%   Direction: 220°SW
Pressure: 29.47"   Gusts: 18mph
Location:  33.06°N, 91.57°W
Report Text: KBQP 231935Z AUTO 22010G16KT 10SM SCT015 BKN023 OVC070 18/16 A2947 RMK AO2 T01750162
Loading
Personal Weather Stations






























Interactive Weather Map New forecast layout! Learn more

10-Day Weather Forecast

Advertisements
Track Severe Weather on mobile